sensor_id;sensor_type;location;lat;lon;timestamp;temperature;humidity
10296;DHT22;5193;51.032;6.356;2023-05-21T00:00:11;13.50;99.90
10296;DHT22;5193;51.032;6.356;2023-05-21T00:02:38;13.50;99.90
10296;DHT22;5193;51.032;6.356;2023-05-21T00:05:04;13.50;99.90
10296;DHT22;5193;51.032;6.356;2023-05-21T00:07:30;13.40;99.90
10296;DHT22;5193;51.032;6.356;2023-05-21T00:09:57;13.30;99.90
10296;DHT22;5193;51.032;6.356;2023-05-21T00:12:23;13.30;99.90
10296;DHT22;5193;51.032;6.356;2023-05-21T00:14:48;13.20;99.90
10296;DHT22;5193;51.032;6.356;2023-05-21T00:17:14;13.20;99.90
10296;DHT22;5193;51.032;6.356;2023-05-21T00:19:40;13.20;99.90
10296;DHT22;5193;51.032;6.356;2023-05-21T00:22:05;13.10;99.90
10296;DHT22;5193;51.032;6.356;2023-05-21T00:24:31;13.10;99.90
10296;DHT22;5193;51.032;6.356;2023-05-21T00:26:57;13.00;99.90
10296;DHT22;5193;51.032;6.356;2023-05-21T00:29:22;13.00;99.90
10296;DHT22;5193;51.032;6.356;2023-05-21T00:31:48;12.90;99.90
10296;DHT22;5193;51.032;6.356;2023-05-21T00:34:15;12.90;99.90
10296;DHT22;5193;51.032;6.356;2023-05-21T00:36:41;12.90;99.90
10296;DHT22;5193;51.032;6.356;2023-05-21T00:39:10;12.80;99.90
10296;DHT22;5193;51.032;6.356;2023-05-21T00:41:36;12.80;99.90
10296;DHT22;5193;51.032;6.356;2023-05-21T00:44:08;12.80;99.90
10296;DHT22;5193;51.032;6.356;2023-05-21T00:46:34;12.80;99.90
10296;DHT22;5193;51.032;6.356;2023-05-21T00:49:00;12.80;99.90
10296;DHT22;5193;51.032;6.356;2023-05-21T00:51:26;12.80;99.90
10296;DHT22;5193;51.032;6.356;2023-05-21T00:53:55;12.80;99.90
10296;DHT22;5193;51.032;6.356;2023-05-21T00:56:23;12.80;99.90
10296;DHT22;5193;51.032;6.356;2023-05-21T00:58:49;12.80;99.90
10296;DHT22;5193;51.032;6.356;2023-05-21T01:01:19;12.80;99.90
10296;DHT22;5193;51.032;6.356;2023-05-21T01:03:45;12.70;99.90
10296;DHT22;5193;51.032;6.356;2023-05-21T01:06:12;12.70;99.90
10296;DHT22;5193;51.032;6.356;2023-05-21T01:08:39;12.70;99.90
10296;DHT22;5193;51.032;6.356;2023-05-21T01:11:06;12.70;99.90
10296;DHT22;5193;51.032;6.356;2023-05-21T01:13:35;12.60;99.90
10296;DHT22;5193;51.032;6.356;2023-05-21T01:16:02;12.60;99.90
10296;DHT22;5193;51.032;6.356;2023-05-21T01:18:28;12.60;99.90
10296;DHT22;5193;51.032;6.356;2023-05-21T01:20:54;12.60;99.90
10296;DHT22;5193;51.032;6.356;2023-05-21T01:23:20;12.50;99.90
10296;DHT22;5193;51.032;6.356;2023-05-21T01:25:46;12.50;99.90
10296;DHT22;5193;51.032;6.356;2023-05-21T01:28:12;12.60;99.90
10296;DHT22;5193;51.032;6.356;2023-05-21T01:30:40;12.60;99.90
10296;DHT22;5193;51.032;6.356;2023-05-21T01:33:11;12.60;99.90
10296;DHT22;5193;51.032;6.356;2023-05-21T01:35:46;12.50;99.90
10296;DHT22;5193;51.032;6.356;2023-05-21T01:40:54;12.60;99.90
10296;DHT22;5193;51.032;6.356;2023-05-21T01:43:23;12.50;99.90
10296;DHT22;5193;51.032;6.356;2023-05-21T01:45:53;12.50;99.90
10296;DHT22;5193;51.032;6.356;2023-05-21T01:48:22;12.60;99.90
10296;DHT22;5193;51.032;6.356;2023-05-21T01:50:48;12.60;99.90
10296;DHT22;5193;51.032;6.356;2023-05-21T01:53:15;12.60;99.90
10296;DHT22;5193;51.032;6.356;2023-05-21T01:55:41;12.60;99.90
10296;DHT22;5193;51.032;6.356;2023-05-21T01:58:08;12.60;99.90
10296;DHT22;5193;51.032;6.356;2023-05-21T02:00:34;12.60;99.90
10296;DHT22;5193;51.032;6.356;2023-05-21T02:03:00;12.60;99.90
10296;DHT22;5193;51.032;6.356;2023-05-21T02:05:25;12.60;99.90
10296;DHT22;5193;51.032;6.356;2023-05-21T02:07:51;12.60;99.90
10296;DHT22;5193;51.032;6.356;2023-05-21T02:10:17;12.60;99.90
10296;DHT22;5193;51.032;6.356;2023-05-21T02:12:43;12.60;99.90
10296;DHT22;5193;51.032;6.356;2023-05-21T02:15:09;12.60;99.90
10296;DHT22;5193;51.032;6.356;2023-05-21T02:17:35;12.60;99.90
10296;DHT22;5193;51.032;6.356;2023-05-21T02:20:03;12.60;99.90
10296;DHT22;5193;51.032;6.356;2023-05-21T02:22:44;12.60;99.90
10296;DHT22;5193;51.032;6.356;2023-05-21T02:25:11;12.60;99.90
10296;DHT22;5193;51.032;6.356;2023-05-21T02:27:38;12.60;99.90
10296;DHT22;5193;51.032;6.356;2023-05-21T02:30:06;12.70;99.90
10296;DHT22;5193;51.032;6.356;2023-05-21T02:32:32;12.60;99.90
10296;DHT22;5193;51.032;6.356;2023-05-21T02:35:00;12.70;99.90
10296;DHT22;5193;51.032;6.356;2023-05-21T02:37:26;12.60;99.90
10296;DHT22;5193;51.032;6.356;2023-05-21T02:39:55;12.60;99.90
10296;DHT22;5193;51.032;6.356;2023-05-21T02:42:21;12.60;99.90
10296;DHT22;5193;51.032;6.356;2023-05-21T02:44:51;12.60;99.90
10296;DHT22;5193;51.032;6.356;2023-05-21T02:47:18;12.60;99.90
10296;DHT22;5193;51.032;6.356;2023-05-21T02:49:44;12.60;99.90
10296;DHT22;5193;51.032;6.356;2023-05-21T02:52:09;12.50;99.90
10296;DHT22;5193;51.032;6.356;2023-05-21T02:54:35;12.50;99.90
10296;DHT22;5193;51.032;6.356;2023-05-21T02:57:01;12.50;99.90
10296;DHT22;5193;51.032;6.356;2023-05-21T02:59:26;12.50;99.90
10296;DHT22;5193;51.032;6.356;2023-05-21T03:01:52;12.40;99.90
10296;DHT22;5193;51.032;6.356;2023-05-21T03:04:17;12.40;99.90
10296;DHT22;5193;51.032;6.356;2023-05-21T03:06:46;12.40;99.90
10296;DHT22;5193;51.032;6.356;2023-05-21T03:09:12;12.40;99.90
10296;DHT22;5193;51.032;6.356;2023-05-21T03:11:37;12.40;99.90
10296;DHT22;5193;51.032;6.356;2023-05-21T03:14:03;12.40;99.90
10296;DHT22;5193;51.032;6.356;2023-05-21T03:16:29;12.40;99.90
10296;DHT22;5193;51.032;6.356;2023-05-21T03:18:58;12.40;99.90
10296;DHT22;5193;51.032;6.356;2023-05-21T03:21:24;12.30;99.90
10296;DHT22;5193;51.032;6.356;2023-05-21T03:23:50;12.30;99.90
10296;DHT22;5193;51.032;6.356;2023-05-21T03:26:17;12.30;99.90
10296;DHT22;5193;51.032;6.356;2023-05-21T03:28:42;12.30;99.90
10296;DHT22;5193;51.032;6.356;2023-05-21T03:31:08;12.30;99.90
10296;DHT22;5193;51.032;6.356;2023-05-21T03:33:33;12.30;99.90
10296;DHT22;5193;51.032;6.356;2023-05-21T03:35:59;12.30;99.90
10296;DHT22;5193;51.032;6.356;2023-05-21T03:38:25;12.30;99.90
10296;DHT22;5193;51.032;6.356;2023-05-21T03:40:50;12.30;99.90
10296;DHT22;5193;51.032;6.356;2023-05-21T03:43:17;12.30;99.90
10296;DHT22;5193;51.032;6.356;2023-05-21T03:45:43;12.30;99.90
10296;DHT22;5193;51.032;6.356;2023-05-21T03:48:08;12.30;99.90
10296;DHT22;5193;51.032;6.356;2023-05-21T03:50:34;12.30;99.90
10296;DHT22;5193;51.032;6.356;2023-05-21T03:52:59;12.30;99.90
10296;DHT22;5193;51.032;6.356;2023-05-21T03:55:25;12.30;99.90
10296;DHT22;5193;51.032;6.356;2023-05-21T03:57:50;12.30;99.90
10296;DHT22;5193;51.032;6.356;2023-05-21T04:00:16;12.30;99.90
10296;DHT22;5193;51.032;6.356;2023-05-21T04:02:42;12.30;99.90
10296;DHT22;5193;51.032;6.356;2023-05-21T04:05:07;12.30;99.90
10296;DHT22;5193;51.032;6.356;2023-05-21T04:07:33;12.30;99.90
10296;DHT22;5193;51.032;6.356;2023-05-21T04:09:59;12.30;99.90
10296;DHT22;5193;51.032;6.356;2023-05-21T04:12:24;12.30;99.90
10296;DHT22;5193;51.032;6.356;2023-05-21T04:14:50;12.40;99.90
10296;DHT22;5193;51.032;6.356;2023-05-21T04:17:16;12.40;99.90
10296;DHT22;5193;51.032;6.356;2023-05-21T04:19:43;12.40;99.90
10296;DHT22;5193;51.032;6.356;2023-05-21T04:22:09;12.40;99.90
10296;DHT22;5193;51.032;6.356;2023-05-21T04:24:36;12.40;99.90
10296;DHT22;5193;51.032;6.356;2023-05-21T04:27:02;12.40;99.90
10296;DHT22;5193;51.032;6.356;2023-05-21T04:29:28;12.40;99.90
10296;DHT22;5193;51.032;6.356;2023-05-21T04:31:54;12.40;99.90
10296;DHT22;5193;51.032;6.356;2023-05-21T04:34:20;12.50;99.90
10296;DHT22;5193;51.032;6.356;2023-05-21T04:36:46;12.50;99.90
10296;DHT22;5193;51.032;6.356;2023-05-21T04:39:12;12.50;99.90
10296;DHT22;5193;51.032;6.356;2023-05-21T04:41:39;12.50;99.90
10296;DHT22;5193;51.032;6.356;2023-05-21T04:44:07;12.50;99.90
10296;DHT22;5193;51.032;6.356;2023-05-21T04:46:33;12.50;99.90
10296;DHT22;5193;51.032;6.356;2023-05-21T04:49:02;12.50;99.90
10296;DHT22;5193;51.032;6.356;2023-05-21T04:51:31;12.50;99.90
10296;DHT22;5193;51.032;6.356;2023-05-21T04:53:56;12.50;99.90
10296;DHT22;5193;51.032;6.356;2023-05-21T04:56:26;12.60;99.90
10296;DHT22;5193;51.032;6.356;2023-05-21T04:58:54;12.60;99.90
10296;DHT22;5193;51.032;6.356;2023-05-21T05:01:21;12.60;99.90
10296;DHT22;5193;51.032;6.356;2023-05-21T05:03:51;12.70;99.90
10296;DHT22;5193;51.032;6.356;2023-05-21T05:06:17;12.70;99.90
10296;DHT22;5193;51.032;6.356;2023-05-21T05:08:43;12.70;99.90
10296;DHT22;5193;51.032;6.356;2023-05-21T05:11:11;12.70;99.90
10296;DHT22;5193;51.032;6.356;2023-05-21T05:13:37;12.70;99.90
10296;DHT22;5193;51.032;6.356;2023-05-21T05:16:03;12.80;99.90
10296;DHT22;5193;51.032;6.356;2023-05-21T05:18:28;12.80;99.90
10296;DHT22;5193;51.032;6.356;2023-05-21T05:20:54;12.80;99.90
10296;DHT22;5193;51.032;6.356;2023-05-21T05:23:19;12.80;99.90
10296;DHT22;5193;51.032;6.356;2023-05-21T05:25:45;12.90;99.90
10296;DHT22;5193;51.032;6.356;2023-05-21T05:28:11;12.90;99.90
10296;DHT22;5193;51.032;6.356;2023-05-21T05:30:36;12.90;99.90
10296;DHT22;5193;51.032;6.356;2023-05-21T05:33:02;12.90;99.90
10296;DHT22;5193;51.032;6.356;2023-05-21T05:35:27;12.90;99.90
10296;DHT22;5193;51.032;6.356;2023-05-21T05:37:53;13.00;99.90
10296;DHT22;5193;51.032;6.356;2023-05-21T05:40:18;13.00;99.90
10296;DHT22;5193;51.032;6.356;2023-05-21T05:42:44;13.00;99.90
10296;DHT22;5193;51.032;6.356;2023-05-21T05:45:11;13.10;99.90
10296;DHT22;5193;51.032;6.356;2023-05-21T05:47:36;13.10;99.90
10296;DHT22;5193;51.032;6.356;2023-05-21T05:50:02;13.10;99.90
10296;DHT22;5193;51.032;6.356;2023-05-21T05:52:28;13.20;99.90
10296;DHT22;5193;51.032;6.356;2023-05-21T05:54:53;13.20;99.90
10296;DHT22;5193;51.032;6.356;2023-05-21T05:57:19;13.20;99.90
10296;DHT22;5193;51.032;6.356;2023-05-21T05:59:44;13.30;99.90
10296;DHT22;5193;51.032;6.356;2023-05-21T06:02:10;13.30;99.90
10296;DHT22;5193;51.032;6.356;2023-05-21T06:04:36;13.40;99.90
10296;DHT22;5193;51.032;6.356;2023-05-21T06:07:01;13.40;99.90
10296;DHT22;5193;51.032;6.356;2023-05-21T06:09:27;13.40;99.90
10296;DHT22;5193;51.032;6.356;2023-05-21T06:11:53;13.50;99.90
10296;DHT22;5193;51.032;6.356;2023-05-21T06:14:18;13.60;99.90
10296;DHT22;5193;51.032;6.356;2023-05-21T06:16:44;13.60;99.90
10296;DHT22;5193;51.032;6.356;2023-05-21T06:19:09;13.70;99.90
10296;DHT22;5193;51.032;6.356;2023-05-21T06:21:35;13.70;99.90
10296;DHT22;5193;51.032;6.356;2023-05-21T06:24:01;13.70;99.90
10296;DHT22;5193;51.032;6.356;2023-05-21T06:26:26;13.80;99.90
10296;DHT22;5193;51.032;6.356;2023-05-21T06:28:52;13.90;99.90
10296;DHT22;5193;51.032;6.356;2023-05-21T06:31:17;13.90;99.90
10296;DHT22;5193;51.032;6.356;2023-05-21T06:33:47;14.00;99.90
10296;DHT22;5193;51.032;6.356;2023-05-21T06:36:14;14.00;99.90
10296;DHT22;5193;51.032;6.356;2023-05-21T06:38:39;14.10;99.90
10296;DHT22;5193;51.032;6.356;2023-05-21T06:41:05;14.20;99.90
10296;DHT22;5193;51.032;6.356;2023-05-21T06:43:31;14.30;99.90
10296;DHT22;5193;51.032;6.356;2023-05-21T06:45:56;14.40;99.90
10296;DHT22;5193;51.032;6.356;2023-05-21T06:48:22;14.60;99.90
10296;DHT22;5193;51.032;6.356;2023-05-21T06:50:47;14.80;99.90
10296;DHT22;5193;51.032;6.356;2023-05-21T06:53:13;14.90;99.90
10296;DHT22;5193;51.032;6.356;2023-05-21T06:55:40;15.10;99.90
10296;DHT22;5193;51.032;6.356;2023-05-21T06:58:12;15.20;99.90
10296;DHT22;5193;51.032;6.356;2023-05-21T07:00:37;15.30;99.90
10296;DHT22;5193;51.032;6.356;2023-05-21T07:03:03;15.30;99.90
10296;DHT22;5193;51.032;6.356;2023-05-21T07:05:29;15.30;99.90
10296;DHT22;5193;51.032;6.356;2023-05-21T07:07:54;15.40;99.90
10296;DHT22;5193;51.032;6.356;2023-05-21T07:10:20;15.50;99.90
10296;DHT22;5193;51.032;6.356;2023-05-21T07:12:46;15.50;99.90
10296;DHT22;5193;51.032;6.356;2023-05-21T07:15:12;15.60;99.90
10296;DHT22;5193;51.032;6.356;2023-05-21T07:17:37;15.70;99.90
10296;DHT22;5193;51.032;6.356;2023-05-21T07:20:03;15.80;99.90
10296;DHT22;5193;51.032;6.356;2023-05-21T07:22:37;15.80;99.90
10296;DHT22;5193;51.032;6.356;2023-05-21T07:25:03;15.80;99.90
10296;DHT22;5193;51.032;6.356;2023-05-21T07:27:29;15.90;99.90
10296;DHT22;5193;51.032;6.356;2023-05-21T07:29:55;15.90;99.90
10296;DHT22;5193;51.032;6.356;2023-05-21T07:32:20;16.00;99.90
10296;DHT22;5193;51.032;6.356;2023-05-21T07:34:46;16.00;99.90
10296;DHT22;5193;51.032;6.356;2023-05-21T07:37:11;16.10;99.90
10296;DHT22;5193;51.032;6.356;2023-05-21T07:39:38;16.10;99.90
10296;DHT22;5193;51.032;6.356;2023-05-21T07:42:04;16.20;99.90
10296;DHT22;5193;51.032;6.356;2023-05-21T07:44:29;16.20;99.90
10296;DHT22;5193;51.032;6.356;2023-05-21T07:46:56;16.30;99.90
10296;DHT22;5193;51.032;6.356;2023-05-21T07:49:22;16.30;99.90
10296;DHT22;5193;51.032;6.356;2023-05-21T07:51:48;16.50;99.90
10296;DHT22;5193;51.032;6.356;2023-05-21T07:54:14;16.60;99.90
10296;DHT22;5193;51.032;6.356;2023-05-21T07:56:40;16.70;99.90
10296;DHT22;5193;51.032;6.356;2023-05-21T07:59:05;16.70;99.90
10296;DHT22;5193;51.032;6.356;2023-05-21T08:01:31;16.80;99.90
10296;DHT22;5193;51.032;6.356;2023-05-21T08:03:58;16.90;99.90
10296;DHT22;5193;51.032;6.356;2023-05-21T08:06:25;17.00;99.90
10296;DHT22;5193;51.032;6.356;2023-05-21T08:08:51;17.10;99.90
10296;DHT22;5193;51.032;6.356;2023-05-21T08:11:18;17.10;99.90
10296;DHT22;5193;51.032;6.356;2023-05-21T08:13:44;17.20;99.90
10296;DHT22;5193;51.032;6.356;2023-05-21T08:16:09;17.20;99.90
10296;DHT22;5193;51.032;6.356;2023-05-21T08:18:35;17.30;99.90
10296;DHT22;5193;51.032;6.356;2023-05-21T08:21:01;17.40;99.90
10296;DHT22;5193;51.032;6.356;2023-05-21T08:23:26;17.50;99.90
10296;DHT22;5193;51.032;6.356;2023-05-21T08:25:52;17.60;99.90
10296;DHT22;5193;51.032;6.356;2023-05-21T08:28:20;17.70;99.90
10296;DHT22;5193;51.032;6.356;2023-05-21T08:30:46;17.70;99.90
10296;DHT22;5193;51.032;6.356;2023-05-21T08:33:11;17.80;99.90
10296;DHT22;5193;51.032;6.356;2023-05-21T08:35:38;17.80;99.90
10296;DHT22;5193;51.032;6.356;2023-05-21T08:38:04;17.80;99.90
10296;DHT22;5193;51.032;6.356;2023-05-21T08:40:30;17.90;99.90
10296;DHT22;5193;51.032;6.356;2023-05-21T08:42:55;18.00;99.90
10296;DHT22;5193;51.032;6.356;2023-05-21T08:45:22;18.00;99.90
10296;DHT22;5193;51.032;6.356;2023-05-21T08:47:56;18.10;99.90
10296;DHT22;5193;51.032;6.356;2023-05-21T08:50:26;18.10;99.90
10296;DHT22;5193;51.032;6.356;2023-05-21T08:52:52;18.00;99.90
10296;DHT22;5193;51.032;6.356;2023-05-21T08:55:19;18.10;99.90
10296;DHT22;5193;51.032;6.356;2023-05-21T08:57:46;18.10;99.90
10296;DHT22;5193;51.032;6.356;2023-05-21T09:00:12;18.10;99.90
10296;DHT22;5193;51.032;6.356;2023-05-21T09:02:38;18.20;99.90
10296;DHT22;5193;51.032;6.356;2023-05-21T09:05:09;18.30;99.90
10296;DHT22;5193;51.032;6.356;2023-05-21T09:07:46;18.40;99.90
10296;DHT22;5193;51.032;6.356;2023-05-21T09:10:12;18.60;99.90
10296;DHT22;5193;51.032;6.356;2023-05-21T09:12:38;18.60;99.90
10296;DHT22;5193;51.032;6.356;2023-05-21T09:15:05;18.80;99.90
10296;DHT22;5193;51.032;6.356;2023-05-21T09:17:31;18.80;99.90
10296;DHT22;5193;51.032;6.356;2023-05-21T09:22:34;18.90;99.90
10296;DHT22;5193;51.032;6.356;2023-05-21T09:25:03;19.10;99.90
10296;DHT22;5193;51.032;6.356;2023-05-21T09:27:29;19.10;99.90
10296;DHT22;5193;51.032;6.356;2023-05-21T09:29:54;19.30;99.90
10296;DHT22;5193;51.032;6.356;2023-05-21T09:32:20;19.40;99.90
10296;DHT22;5193;51.032;6.356;2023-05-21T09:34:46;19.50;99.90
10296;DHT22;5193;51.032;6.356;2023-05-21T09:37:12;19.60;99.90
10296;DHT22;5193;51.032;6.356;2023-05-21T09:39:39;19.70;99.90
10296;DHT22;5193;51.032;6.356;2023-05-21T09:42:05;19.80;99.90
10296;DHT22;5193;51.032;6.356;2023-05-21T09:44:31;19.80;99.90
10296;DHT22;5193;51.032;6.356;2023-05-21T09:46:57;19.70;99.90
10296;DHT22;5193;51.032;6.356;2023-05-21T09:49:24;19.80;99.90
10296;DHT22;5193;51.032;6.356;2023-05-21T09:51:54;19.80;99.90
10296;DHT22;5193;51.032;6.356;2023-05-21T09:54:21;19.80;99.90
10296;DHT22;5193;51.032;6.356;2023-05-21T09:56:46;19.70;99.90
10296;DHT22;5193;51.032;6.356;2023-05-21T09:59:12;19.80;99.90
10296;DHT22;5193;51.032;6.356;2023-05-21T10:01:38;19.70;99.90
10296;DHT22;5193;51.032;6.356;2023-05-21T10:04:06;19.70;99.90
10296;DHT22;5193;51.032;6.356;2023-05-21T10:06:36;19.70;99.90
10296;DHT22;5193;51.032;6.356;2023-05-21T10:09:08;19.70;99.90
10296;DHT22;5193;51.032;6.356;2023-05-21T10:11:35;19.60;99.90
10296;DHT22;5193;51.032;6.356;2023-05-21T10:14:15;19.60;99.90
10296;DHT22;5193;51.032;6.356;2023-05-21T10:16:42;19.60;99.90
10296;DHT22;5193;51.032;6.356;2023-05-21T10:19:08;19.60;99.90
10296;DHT22;5193;51.032;6.356;2023-05-21T10:21:35;19.60;99.90
10296;DHT22;5193;51.032;6.356;2023-05-21T10:24:01;19.60;99.90
10296;DHT22;5193;51.032;6.356;2023-05-21T10:26:29;19.40;99.90
10296;DHT22;5193;51.032;6.356;2023-05-21T10:28:56;19.30;99.90
10296;DHT22;5193;51.032;6.356;2023-05-21T10:31:25;19.40;99.90
10296;DHT22;5193;51.032;6.356;2023-05-21T10:33:52;19.40;99.90
10296;DHT22;5193;51.032;6.356;2023-05-21T10:36:19;19.50;99.90
10296;DHT22;5193;51.032;6.356;2023-05-21T10:38:46;19.60;99.90
10296;DHT22;5193;51.032;6.356;2023-05-21T10:41:13;19.60;99.90
10296;DHT22;5193;51.032;6.356;2023-05-21T10:49:37;19.60;99.90
10296;DHT22;5193;51.032;6.356;2023-05-21T10:52:24;19.70;99.90
10296;DHT22;5193;51.032;6.356;2023-05-21T10:57:45;19.90;99.90
10296;DHT22;5193;51.032;6.356;2023-05-21T11:00:18;20.00;99.90
10296;DHT22;5193;51.032;6.356;2023-05-21T11:02:47;20.00;99.90
10296;DHT22;5193;51.032;6.356;2023-05-21T11:05:13;20.10;99.90
10296;DHT22;5193;51.032;6.356;2023-05-21T11:07:52;20.20;99.90
10296;DHT22;5193;51.032;6.356;2023-05-21T11:13:11;20.60;99.90
10296;DHT22;5193;51.032;6.356;2023-05-21T11:21:09;20.80;99.90
10296;DHT22;5193;51.032;6.356;2023-05-21T11:23:55;20.80;99.90
10296;DHT22;5193;51.032;6.356;2023-05-21T11:26:25;20.90;99.90
10296;DHT22;5193;51.032;6.356;2023-05-21T11:31:30;21.10;99.90
10296;DHT22;5193;51.032;6.356;2023-05-21T11:34:22;21.10;99.90
10296;DHT22;5193;51.032;6.356;2023-05-21T11:40:17;21.40;99.90
10296;DHT22;5193;51.032;6.356;2023-05-21T11:42:48;21.50;99.90
10296;DHT22;5193;51.032;6.356;2023-05-21T11:45:16;21.50;99.90
10296;DHT22;5193;51.032;6.356;2023-05-21T11:47:43;21.50;99.90
10296;DHT22;5193;51.032;6.356;2023-05-21T11:50:12;21.60;99.90
10296;DHT22;5193;51.032;6.356;2023-05-21T11:52:39;21.70;99.90
10296;DHT22;5193;51.032;6.356;2023-05-21T11:55:06;21.70;99.90
10296;DHT22;5193;51.032;6.356;2023-05-21T11:57:32;21.90;99.90
10296;DHT22;5193;51.032;6.356;2023-05-21T11:59:59;21.90;99.90
10296;DHT22;5193;51.032;6.356;2023-05-21T12:02:29;21.80;99.90
10296;DHT22;5193;51.032;6.356;2023-05-21T12:04:56;22.00;99.90
10296;DHT22;5193;51.032;6.356;2023-05-21T12:07:26;22.00;99.90
10296;DHT22;5193;51.032;6.356;2023-05-21T12:09:55;22.10;99.90
10296;DHT22;5193;51.032;6.356;2023-05-21T12:12:25;22.00;99.90
10296;DHT22;5193;51.032;6.356;2023-05-21T12:14:53;22.00;99.90
10296;DHT22;5193;51.032;6.356;2023-05-21T12:17:23;22.10;99.90
10296;DHT22;5193;51.032;6.356;2023-05-21T12:19:52;22.10;99.90
10296;DHT22;5193;51.032;6.356;2023-05-21T12:22:18;22.10;99.90
10296;DHT22;5193;51.032;6.356;2023-05-21T12:24:44;22.30;99.90
10296;DHT22;5193;51.032;6.356;2023-05-21T12:27:10;22.40;99.90
10296;DHT22;5193;51.032;6.356;2023-05-21T12:29:44;22.40;99.90
10296;DHT22;5193;51.032;6.356;2023-05-21T12:32:12;22.50;99.90
10296;DHT22;5193;51.032;6.356;2023-05-21T12:34:43;22.70;99.90
10296;DHT22;5193;51.032;6.356;2023-05-21T12:37:20;22.70;99.90
10296;DHT22;5193;51.032;6.356;2023-05-21T12:39:48;22.80;99.90
10296;DHT22;5193;51.032;6.356;2023-05-21T12:42:14;22.80;99.90
10296;DHT22;5193;51.032;6.356;2023-05-21T12:44:45;22.80;99.90
10296;DHT22;5193;51.032;6.356;2023-05-21T12:47:11;22.90;99.90
10296;DHT22;5193;51.032;6.356;2023-05-21T12:49:44;22.90;99.90
10296;DHT22;5193;51.032;6.356;2023-05-21T12:52:14;22.90;99.90
10296;DHT22;5193;51.032;6.356;2023-05-21T12:54:42;23.00;99.90
10296;DHT22;5193;51.032;6.356;2023-05-21T12:57:13;23.20;99.90
10296;DHT22;5193;51.032;6.356;2023-05-21T12:59:53;23.50;99.90
10296;DHT22;5193;51.032;6.356;2023-05-21T13:02:33;23.50;99.90
10296;DHT22;5193;51.032;6.356;2023-05-21T13:05:01;23.50;99.90
10296;DHT22;5193;51.032;6.356;2023-05-21T13:07:28;23.40;99.90
10296;DHT22;5193;51.032;6.356;2023-05-21T13:09:55;23.40;99.90
10296;DHT22;5193;51.032;6.356;2023-05-21T13:12:22;23.40;99.90
10296;DHT22;5193;51.032;6.356;2023-05-21T13:14:52;23.60;99.90
10296;DHT22;5193;51.032;6.356;2023-05-21T13:17:19;23.80;99.90
10296;DHT22;5193;51.032;6.356;2023-05-21T13:22:34;23.80;99.90
10296;DHT22;5193;51.032;6.356;2023-05-21T13:25:01;23.80;99.90
10296;DHT22;5193;51.032;6.356;2023-05-21T13:27:27;23.80;99.90
10296;DHT22;5193;51.032;6.356;2023-05-21T13:29:53;23.90;99.90
10296;DHT22;5193;51.032;6.356;2023-05-21T13:32:18;23.90;99.90
10296;DHT22;5193;51.032;6.356;2023-05-21T13:34:44;24.00;99.90
10296;DHT22;5193;51.032;6.356;2023-05-21T13:37:09;24.20;99.90
10296;DHT22;5193;51.032;6.356;2023-05-21T13:39:35;24.30;99.90
10296;DHT22;5193;51.032;6.356;2023-05-21T13:42:01;24.20;99.90
10296;DHT22;5193;51.032;6.356;2023-05-21T13:44:26;24.00;99.90
10296;DHT22;5193;51.032;6.356;2023-05-21T13:46:52;24.00;99.90
10296;DHT22;5193;51.032;6.356;2023-05-21T13:49:18;24.20;99.90
10296;DHT22;5193;51.032;6.356;2023-05-21T13:51:43;24.40;99.90
10296;DHT22;5193;51.032;6.356;2023-05-21T13:54:09;24.40;99.90
10296;DHT22;5193;51.032;6.356;2023-05-21T13:56:34;24.40;99.90
10296;DHT22;5193;51.032;6.356;2023-05-21T13:59:00;24.40;99.90
10296;DHT22;5193;51.032;6.356;2023-05-21T14:01:26;24.40;99.90
10296;DHT22;5193;51.032;6.356;2023-05-21T14:03:53;24.70;99.90
10296;DHT22;5193;51.032;6.356;2023-05-21T14:06:19;24.70;99.90
10296;DHT22;5193;51.032;6.356;2023-05-21T14:08:44;24.80;99.90
10296;DHT22;5193;51.032;6.356;2023-05-21T14:11:10;24.70;99.90
10296;DHT22;5193;51.032;6.356;2023-05-21T14:13:36;24.70;99.90
10296;DHT22;5193;51.032;6.356;2023-05-21T14:16:01;24.70;99.90
10296;DHT22;5193;51.032;6.356;2023-05-21T14:18:27;24.70;99.90
10296;DHT22;5193;51.032;6.356;2023-05-21T14:20:52;24.70;99.90
10296;DHT22;5193;51.032;6.356;2023-05-21T14:23:18;24.60;99.90
10296;DHT22;5193;51.032;6.356;2023-05-21T14:25:43;24.60;99.90
10296;DHT22;5193;51.032;6.356;2023-05-21T14:28:09;24.60;99.90
10296;DHT22;5193;51.032;6.356;2023-05-21T14:30:35;24.60;99.90
10296;DHT22;5193;51.032;6.356;2023-05-21T14:33:00;24.50;99.90
10296;DHT22;5193;51.032;6.356;2023-05-21T14:35:26;24.50;99.90
10296;DHT22;5193;51.032;6.356;2023-05-21T14:37:52;24.60;99.90
10296;DHT22;5193;51.032;6.356;2023-05-21T14:40:18;24.70;99.90
10296;DHT22;5193;51.032;6.356;2023-05-21T14:42:44;24.70;99.90
10296;DHT22;5193;51.032;6.356;2023-05-21T14:45:10;24.80;99.90
10296;DHT22;5193;51.032;6.356;2023-05-21T14:47:35;24.70;99.90
10296;DHT22;5193;51.032;6.356;2023-05-21T14:50:01;24.70;99.90
10296;DHT22;5193;51.032;6.356;2023-05-21T14:52:26;24.70;99.90
10296;DHT22;5193;51.032;6.356;2023-05-21T14:54:52;24.90;99.90
10296;DHT22;5193;51.032;6.356;2023-05-21T14:57:17;25.00;99.90
10296;DHT22;5193;51.032;6.356;2023-05-21T14:59:43;25.10;99.90
10296;DHT22;5193;51.032;6.356;2023-05-21T15:02:09;25.00;99.90
10296;DHT22;5193;51.032;6.356;2023-05-21T15:04:34;25.00;99.90
10296;DHT22;5193;51.032;6.356;2023-05-21T15:07:00;25.00;99.90
10296;DHT22;5193;51.032;6.356;2023-05-21T15:09:25;25.00;99.90
10296;DHT22;5193;51.032;6.356;2023-05-21T15:11:51;24.90;99.90
10296;DHT22;5193;51.032;6.356;2023-05-21T15:14:18;24.90;99.90
10296;DHT22;5193;51.032;6.356;2023-05-21T15:16:44;24.90;99.90
10296;DHT22;5193;51.032;6.356;2023-05-21T15:19:09;24.90;99.90
10296;DHT22;5193;51.032;6.356;2023-05-21T15:21:36;24.80;99.90
10296;DHT22;5193;51.032;6.356;2023-05-21T15:24:02;24.80;99.90
10296;DHT22;5193;51.032;6.356;2023-05-21T15:26:28;24.80;99.90
10296;DHT22;5193;51.032;6.356;2023-05-21T15:28:53;24.80;99.90
10296;DHT22;5193;51.032;6.356;2023-05-21T15:31:19;24.90;99.90
10296;DHT22;5193;51.032;6.356;2023-05-21T15:33:45;25.00;99.90
10296;DHT22;5193;51.032;6.356;2023-05-21T15:36:10;24.90;99.90
10296;DHT22;5193;51.032;6.356;2023-05-21T15:38:36;24.80;99.90
10296;DHT22;5193;51.032;6.356;2023-05-21T15:41:01;24.80;99.90
10296;DHT22;5193;51.032;6.356;2023-05-21T15:43:27;24.70;99.90
10296;DHT22;5193;51.032;6.356;2023-05-21T15:45:53;24.60;99.90
10296;DHT22;5193;51.032;6.356;2023-05-21T15:48:18;24.50;99.90
10296;DHT22;5193;51.032;6.356;2023-05-21T15:50:47;24.40;99.90
10296;DHT22;5193;51.032;6.356;2023-05-21T15:53:13;24.30;99.90
10296;DHT22;5193;51.032;6.356;2023-05-21T15:55:39;24.20;99.90
10296;DHT22;5193;51.032;6.356;2023-05-21T15:58:04;24.10;99.90
10296;DHT22;5193;51.032;6.356;2023-05-21T16:00:30;24.10;99.90
10296;DHT22;5193;51.032;6.356;2023-05-21T16:02:56;24.10;99.90
10296;DHT22;5193;51.032;6.356;2023-05-21T16:05:21;24.10;99.90
10296;DHT22;5193;51.032;6.356;2023-05-21T16:07:47;24.10;99.90
10296;DHT22;5193;51.032;6.356;2023-05-21T16:10:13;24.20;99.90
10296;DHT22;5193;51.032;6.356;2023-05-21T16:12:39;24.30;99.90